METAR Data
IDs: Format: Raw Decoded Include TAF

Data at: 0821 UTC 20 Sep 2018

PFCL 200756Z AUTO 26007G14KT 10SM BKN043 11/09 A3028 RMK AO2 SLP248 T01110089 TSNO
PFCL 200656Z AUTO 26009KT 10SM BKN055 11/10 A3029 RMK AO2 SLP249 T01060100 TSNO
PFCL 200556Z AUTO 26008KT 10SM FEW008 OVC048 11/10 A3029 RMK AO2 SLP250 T01110100 10139 20106 50001 TSNO
PFCL 200456Z AUTO 26011G15KT 10SM BKN041 11/09 A3029 RMK AO2 SLP251 T01060094 TSNO
PFCL 200356Z AUTO 26011G15KT 10SM SCT042 SCT049 BKN055 12/08 A3029 RMK AO2 SLP250 T01170083 TSNO
PFCL 200256Z AUTO 26009G14KT 10SM OVC050 12/08 A3029 RMK AO2 SLP249 T01220083 58007 TSNO
PFCL 200156Z AUTO 26007KT 10SM FEW031 13/08 A3030 RMK AO2 SLP252 T01330083 TSNO
PFCL 200056Z AUTO 26006KT 10SM BKN046 13/08 A3030 RMK AO2 SLP253 T01280078 TSNO
PFCL 192356Z AUTO 26007KT 10SM OVC048 13/08 A3031 RMK AO2 SLP256 T01330078 10139 20100 58008 TSNO
PFCL 192256Z AUTO 28008KT 10SM OVC042 13/08 A3032 RMK AO2 SLP259 T01330078 TSNO
PFCL 192156Z AUTO 24006KT 10SM FEW044 13/07 A3032 RMK AO2 SLP261 T01330072 TSNO
PFCL 192056Z AUTO 26007KT 10SM CLR 12/08 A3033 RMK AO2 SLP264 T01220083 57004 TSNO
PFCL 191956Z AUTO 28004KT 10SM OVC039 11/08 A3034 RMK AO2 SLP266 T01110078 TSNO
PFCL 191856Z AUTO 29004KT 10SM OVC039 11/07 A3034 RMK AO2 SLP267 T01110072 TSNO
PFCL 191756Z AUTO 00000KT 10SM OVC037 10/09 A3034 RMK AO2 SLP269 T01000089 10100 20061 51003 TSNO
PFCL 191656Z AUTO 00000KT 10SM BKN035 BKN090 09/06 A3034 RMK AO2 SLP268 T00890056 TSNO
PFCL 191556Z AUTO 04003KT 10SM OVC035 09/06 A3034 RMK AO2 SLP267 T00890061 TSNO
PFCL 191456Z AUTO 07003KT 10SM OVC033 08/06 A3033 RMK AO2 SLP266 T00780061 52001 TSNO
PFCL 191356Z AUTO 09003KT 10SM BKN033 OVC050 08/06 A3033 RMK AO2 SLP266 T00780061 TSNO
PFCL 191256Z AUTO 05003KT 10SM BKN033 OVC045 08/06 A3033 RMK AO2 SLP265 T00830061 TSNO
PFCL 191156Z AUTO 08003KT 10SM BKN037 BKN046 07/06 A3033 RMK AO2 SLP265 T00670061 10122 20067 53003 TSNO
PFCL 191056Z AUTO 00000KT 10SM FEW030 08/07 A3033 RMK AO2 SLP264 T00830072 TSNO
PFCL 190956Z AUTO 06003KT 10SM BKN060 08/08 A3033 RMK AO2 SLP263 T00830078 TSNO
PFCL 190817Z AUTO 00000KT 3SM BR CLR 07/07 A3032 RMK AO2 TSNO
PFCL 190806Z AUTO 00000KT 1 3/4SM BR CLR 07/07 A3031 RMK AO2 VIS 1/2V5 TSNO
PFCL 190756Z AUTO 04003KT 10SM CLR 10/08 A3032 RMK AO2 SLP259 T01000083 TSNO
PFCL 190656Z AUTO 00000KT 5SM BR CLR 08/07 A3031 RMK AO2 SLP256 T00780072 TSNO
PFCL 190556Z AUTO 00000KT 10SM CLR 10/09 A3030 RMK AO2 SLP255 T01000089 10167 20100 53012 TSNO
PFCL 190456Z AUTO 16003KT 10SM FEW060 BKN075 11/09 A3029 RMK AO2 SLP250 T01110089 TSNO
PFCL 190356Z AUTO 27004KT 10SM BKN060 14/10 A3028 RMK AO2 SLP247 T01390100 TSNO
PFCL 190256Z AUTO 32004KT 10SM OVC080 15/09 A3027 RMK AO2 SLP242 T01500089 56001 TSNO
PFCL 190156Z AUTO 00000KT 10SM FEW027 BKN065 BKN095 16/08 A3027 RMK AO2 SLP243 T01560078 TSNO
PFCL 182356Z AUTO 35005KT 10SM OVC090 14/10 A3027 RMK AO2 SLP243 T01390100 10144 20100 50004 TSNO
PFCL 182256Z AUTO 35006KT 10SM OVC090 13/11 A3027 RMK AO2 SLP245 T01330106 TSNO
PFCL 182156Z AUTO 02006KT 6SM HZ OVC095 13/11 A3027 RMK AO2 SLP243 T01330106 TSNO
PFCL 182056Z AUTO 35007KT 10SM OVC095 12/10 A3026 RMK AO2 SLP240 T01220100 52004 TSNO